sensor_id;sensor_type;location;lat;lon;timestamp;P1;durP1;ratioP1;P2;durP2;ratioP2
17852;SDS011;9052;53.494;14.376;2024-03-29T00:01:57;1.07;;;0.97;;
17852;SDS011;9052;53.494;14.376;2024-03-29T00:04:23;2.93;;;1.00;;
17852;SDS011;9052;53.494;14.376;2024-03-29T00:06:48;1.40;;;0.90;;
17852;SDS011;9052;53.494;14.376;2024-03-29T00:09:14;1.13;;;0.63;;
17852;SDS011;9052;53.494;14.376;2024-03-29T00:11:39;0.87;;;0.70;;
17852;SDS011;9052;53.494;14.376;2024-03-29T00:14:05;1.40;;;1.03;;
17852;SDS011;9052;53.494;14.376;2024-03-29T00:16:30;0.80;;;0.73;;
17852;SDS011;9052;53.494;14.376;2024-03-29T00:18:56;1.00;;;0.83;;
17852;SDS011;9052;53.494;14.376;2024-03-29T00:21:21;1.13;;;0.67;;
17852;SDS011;9052;53.494;14.376;2024-03-29T00:23:47;2.80;;;1.50;;
17852;SDS011;9052;53.494;14.376;2024-03-29T00:26:12;3.43;;;1.50;;
17852;SDS011;9052;53.494;14.376;2024-03-29T00:28:41;1.37;;;1.27;;
17852;SDS011;9052;53.494;14.376;2024-03-29T00:31:07;0.60;;;0.60;;
17852;SDS011;9052;53.494;14.376;2024-03-29T00:33:33;3.70;;;1.17;;
17852;SDS011;9052;53.494;14.376;2024-03-29T00:35:58;7.70;;;0.60;;
17852;SDS011;9052;53.494;14.376;2024-03-29T00:38:24;0.70;;;0.70;;
17852;SDS011;9052;53.494;14.376;2024-03-29T00:40:50;3.60;;;0.80;;
17852;SDS011;9052;53.494;14.376;2024-03-29T00:43:15;1.30;;;0.93;;
17852;SDS011;9052;53.494;14.376;2024-03-29T00:45:41;0.67;;;0.67;;
17852;SDS011;9052;53.494;14.376;2024-03-29T00:48:06;1.90;;;0.93;;
17852;SDS011;9052;53.494;14.376;2024-03-29T00:50:32;1.37;;;0.90;;
17852;SDS011;9052;53.494;14.376;2024-03-29T00:52:58;2.83;;;1.10;;
17852;SDS011;9052;53.494;14.376;2024-03-29T00:55:23;0.77;;;0.77;;
17852;SDS011;9052;53.494;14.376;2024-03-29T00:57:49;0.63;;;0.60;;
17852;SDS011;9052;53.494;14.376;2024-03-29T01:00:14;0.70;;;0.60;;
17852;SDS011;9052;53.494;14.376;2024-03-29T01:02:40;1.00;;;0.80;;
17852;SDS011;9052;53.494;14.376;2024-03-29T01:05:05;2.67;;;0.80;;
17852;SDS011;9052;53.494;14.376;2024-03-29T01:07:31;2.77;;;0.60;;
17852;SDS011;9052;53.494;14.376;2024-03-29T01:09:56;2.70;;;0.90;;
17852;SDS011;9052;53.494;14.376;2024-03-29T01:12:22;1.43;;;1.20;;
17852;SDS011;9052;53.494;14.376;2024-03-29T01:14:48;0.70;;;0.70;;
17852;SDS011;9052;53.494;14.376;2024-03-29T01:17:13;1.03;;;0.73;;
17852;SDS011;9052;53.494;14.376;2024-03-29T01:19:39;0.80;;;0.60;;
17852;SDS011;9052;53.494;14.376;2024-03-29T01:22:04;2.17;;;0.87;;
17852;SDS011;9052;53.494;14.376;2024-03-29T01:24:30;0.80;;;0.80;;
17852;SDS011;9052;53.494;14.376;2024-03-29T01:26:56;1.93;;;1.10;;
17852;SDS011;9052;53.494;14.376;2024-03-29T01:29:21;2.20;;;0.90;;
17852;SDS011;9052;53.494;14.376;2024-03-29T01:31:47;1.60;;;1.23;;
17852;SDS011;9052;53.494;14.376;2024-03-29T01:34:12;2.10;;;1.07;;
17852;SDS011;9052;53.494;14.376;2024-03-29T01:36:38;2.43;;;0.93;;
17852;SDS011;9052;53.494;14.376;2024-03-29T01:39:03;0.70;;;0.70;;
17852;SDS011;9052;53.494;14.376;2024-03-29T01:41:29;0.90;;;0.90;;
17852;SDS011;9052;53.494;14.376;2024-03-29T01:43:54;0.83;;;0.83;;
17852;SDS011;9052;53.494;14.376;2024-03-29T01:46:21;1.00;;;0.90;;
17852;SDS011;9052;53.494;14.376;2024-03-29T01:48:49;0.73;;;0.73;;
17852;SDS011;9052;53.494;14.376;2024-03-29T01:51:19;0.93;;;0.70;;
17852;SDS011;9052;53.494;14.376;2024-03-29T01:53:45;0.60;;;0.60;;
17852;SDS011;9052;53.494;14.376;2024-03-29T01:56:12;1.17;;;0.50;;
17852;SDS011;9052;53.494;14.376;2024-03-29T01:58:39;0.80;;;0.80;;
17852;SDS011;9052;53.494;14.376;2024-03-29T02:01:04;1.20;;;0.70;;
17852;SDS011;9052;53.494;14.376;2024-03-29T02:03:31;0.90;;;0.90;;
17852;SDS011;9052;53.494;14.376;2024-03-29T02:05:57;0.60;;;0.60;;
17852;SDS011;9052;53.494;14.376;2024-03-29T02:08:24;4.07;;;0.90;;
17852;SDS011;9052;53.494;14.376;2024-03-29T02:10:50;2.17;;;1.33;;
17852;SDS011;9052;53.494;14.376;2024-03-29T02:13:16;0.70;;;0.70;;
17852;SDS011;9052;53.494;14.376;2024-03-29T02:15:42;0.90;;;0.90;;
17852;SDS011;9052;53.494;14.376;2024-03-29T02:18:08;1.77;;;0.93;;
17852;SDS011;9052;53.494;14.376;2024-03-29T02:20:33;0.77;;;0.77;;
17852;SDS011;9052;53.494;14.376;2024-03-29T02:23:06;1.30;;;1.03;;
17852;SDS011;9052;53.494;14.376;2024-03-29T02:25:33;1.60;;;0.90;;
17852;SDS011;9052;53.494;14.376;2024-03-29T02:27:59;0.53;;;0.53;;
17852;SDS011;9052;53.494;14.376;2024-03-29T02:30:26;1.30;;;0.87;;
17852;SDS011;9052;53.494;14.376;2024-03-29T02:32:52;2.00;;;0.80;;
17852;SDS011;9052;53.494;14.376;2024-03-29T02:35:17;1.33;;;0.73;;
17852;SDS011;9052;53.494;14.376;2024-03-29T02:37:43;0.90;;;0.90;;
17852;SDS011;9052;53.494;14.376;2024-03-29T02:40:08;0.80;;;0.80;;
17852;SDS011;9052;53.494;14.376;2024-03-29T02:42:34;0.60;;;0.60;;
17852;SDS011;9052;53.494;14.376;2024-03-29T02:45:01;1.87;;;1.20;;
17852;SDS011;9052;53.494;14.376;2024-03-29T02:47:27;0.80;;;0.80;;
17852;SDS011;9052;53.494;14.376;2024-03-29T02:49:53;0.97;;;0.70;;
17852;SDS011;9052;53.494;14.376;2024-03-29T02:52:18;0.73;;;0.67;;
17852;SDS011;9052;53.494;14.376;2024-03-29T02:54:44;0.73;;;0.50;;
17852;SDS011;9052;53.494;14.376;2024-03-29T02:57:09;7.63;;;0.90;;
17852;SDS011;9052;53.494;14.376;2024-03-29T02:59:35;1.40;;;1.00;;
17852;SDS011;9052;53.494;14.376;2024-03-29T03:02:00;0.60;;;0.60;;
17852;SDS011;9052;53.494;14.376;2024-03-29T03:04:25;0.70;;;0.70;;
17852;SDS011;9052;53.494;14.376;2024-03-29T03:06:51;4.87;;;1.23;;
17852;SDS011;9052;53.494;14.376;2024-03-29T03:09:16;1.03;;;0.90;;
17852;SDS011;9052;53.494;14.376;2024-03-29T03:12:00;10.53;;;0.90;;
17852;SDS011;9052;53.494;14.376;2024-03-29T03:14:26;1.20;;;0.80;;
17852;SDS011;9052;53.494;14.376;2024-03-29T03:16:52;11.33;;;0.93;;
17852;SDS011;9052;53.494;14.376;2024-03-29T03:19:17;2.37;;;1.13;;
17852;SDS011;9052;53.494;14.376;2024-03-29T03:21:43;0.60;;;0.60;;
17852;SDS011;9052;53.494;14.376;2024-03-29T03:24:09;0.80;;;0.60;;
17852;SDS011;9052;53.494;14.376;2024-03-29T03:26:34;0.90;;;0.77;;
17852;SDS011;9052;53.494;14.376;2024-03-29T03:29:00;1.13;;;1.13;;
17852;SDS011;9052;53.494;14.376;2024-03-29T03:31:26;1.63;;;1.20;;
17852;SDS011;9052;53.494;14.376;2024-03-29T03:33:51;2.10;;;1.60;;
17852;SDS011;9052;53.494;14.376;2024-03-29T03:36:17;2.50;;;0.97;;
17852;SDS011;9052;53.494;14.376;2024-03-29T03:38:42;4.63;;;1.10;;
17852;SDS011;9052;53.494;14.376;2024-03-29T03:41:08;0.67;;;0.67;;
17852;SDS011;9052;53.494;14.376;2024-03-29T03:43:33;2.23;;;1.67;;
17852;SDS011;9052;53.494;14.376;2024-03-29T03:46:02;1.37;;;0.90;;
17852;SDS011;9052;53.494;14.376;2024-03-29T03:48:27;1.67;;;1.10;;
17852;SDS011;9052;53.494;14.376;2024-03-29T03:50:56;0.80;;;0.80;;
17852;SDS011;9052;53.494;14.376;2024-03-29T03:53:21;2.93;;;1.53;;
17852;SDS011;9052;53.494;14.376;2024-03-29T03:55:47;5.20;;;0.90;;
17852;SDS011;9052;53.494;14.376;2024-03-29T03:58:13;1.83;;;1.03;;
17852;SDS011;9052;53.494;14.376;2024-03-29T04:00:38;1.40;;;1.10;;
17852;SDS011;9052;53.494;14.376;2024-03-29T04:03:04;1.60;;;1.17;;
17852;SDS011;9052;53.494;14.376;2024-03-29T04:05:30;4.73;;;1.00;;
17852;SDS011;9052;53.494;14.376;2024-03-29T04:07:56;0.70;;;0.67;;
17852;SDS011;9052;53.494;14.376;2024-03-29T04:10:22;3.50;;;0.90;;
17852;SDS011;9052;53.494;14.376;2024-03-29T04:12:49;2.63;;;1.50;;
17852;SDS011;9052;53.494;14.376;2024-03-29T04:15:15;1.53;;;1.10;;
17852;SDS011;9052;53.494;14.376;2024-03-29T04:17:41;2.40;;;1.63;;
17852;SDS011;9052;53.494;14.376;2024-03-29T04:20:07;1.67;;;1.13;;
17852;SDS011;9052;53.494;14.376;2024-03-29T04:22:32;1.40;;;1.30;;
17852;SDS011;9052;53.494;14.376;2024-03-29T04:24:58;1.97;;;1.00;;
17852;SDS011;9052;53.494;14.376;2024-03-29T04:27:25;1.43;;;1.33;;
17852;SDS011;9052;53.494;14.376;2024-03-29T04:29:51;1.37;;;0.90;;
17852;SDS011;9052;53.494;14.376;2024-03-29T04:32:17;1.67;;;0.60;;
17852;SDS011;9052;53.494;14.376;2024-03-29T04:34:47;3.00;;;1.10;;
17852;SDS011;9052;53.494;14.376;2024-03-29T04:37:13;0.53;;;0.53;;
17852;SDS011;9052;53.494;14.376;2024-03-29T04:39:39;21.53;;;1.43;;
17852;SDS011;9052;53.494;14.376;2024-03-29T04:42:04;3.23;;;1.07;;
17852;SDS011;9052;53.494;14.376;2024-03-29T04:44:30;0.93;;;0.70;;
17852;SDS011;9052;53.494;14.376;2024-03-29T04:46:55;1.07;;;0.77;;
17852;SDS011;9052;53.494;14.376;2024-03-29T04:49:21;1.53;;;0.97;;
17852;SDS011;9052;53.494;14.376;2024-03-29T04:51:55;6.30;;;1.37;;
17852;SDS011;9052;53.494;14.376;2024-03-29T04:54:21;1.43;;;0.70;;
17852;SDS011;9052;53.494;14.376;2024-03-29T04:56:47;2.53;;;0.90;;
17852;SDS011;9052;53.494;14.376;2024-03-29T04:59:12;0.60;;;0.60;;
17852;SDS011;9052;53.494;14.376;2024-03-29T05:01:42;0.50;;;0.50;;
17852;SDS011;9052;53.494;14.376;2024-03-29T05:04:09;6.87;;;1.60;;
17852;SDS011;9052;53.494;14.376;2024-03-29T05:06:35;0.97;;;0.97;;
17852;SDS011;9052;53.494;14.376;2024-03-29T05:09:00;0.77;;;0.73;;
17852;SDS011;9052;53.494;14.376;2024-03-29T05:11:26;0.50;;;0.50;;
17852;SDS011;9052;53.494;14.376;2024-03-29T05:13:51;3.33;;;1.33;;
17852;SDS011;9052;53.494;14.376;2024-03-29T05:16:17;1.57;;;1.17;;
17852;SDS011;9052;53.494;14.376;2024-03-29T05:18:43;2.50;;;1.77;;
17852;SDS011;9052;53.494;14.376;2024-03-29T05:21:08;0.80;;;0.80;;
17852;SDS011;9052;53.494;14.376;2024-03-29T05:23:34;1.33;;;1.00;;
17852;SDS011;9052;53.494;14.376;2024-03-29T05:26:00;0.67;;;0.67;;
17852;SDS011;9052;53.494;14.376;2024-03-29T05:28:25;3.40;;;1.27;;
17852;SDS011;9052;53.494;14.376;2024-03-29T05:30:52;2.87;;;1.53;;
17852;SDS011;9052;53.494;14.376;2024-03-29T05:33:17;1.17;;;0.80;;
17852;SDS011;9052;53.494;14.376;2024-03-29T05:35:45;1.87;;;1.20;;
17852;SDS011;9052;53.494;14.376;2024-03-29T05:38:11;1.70;;;1.00;;
17852;SDS011;9052;53.494;14.376;2024-03-29T05:40:36;3.10;;;1.10;;
17852;SDS011;9052;53.494;14.376;2024-03-29T05:43:03;2.00;;;0.83;;
17852;SDS011;9052;53.494;14.376;2024-03-29T05:45:29;2.53;;;1.00;;
17852;SDS011;9052;53.494;14.376;2024-03-29T05:47:55;2.83;;;0.70;;
17852;SDS011;9052;53.494;14.376;2024-03-29T05:50:22;1.93;;;0.70;;
17852;SDS011;9052;53.494;14.376;2024-03-29T05:52:48;4.77;;;0.90;;
17852;SDS011;9052;53.494;14.376;2024-03-29T05:55:13;1.83;;;0.90;;
17852;SDS011;9052;53.494;14.376;2024-03-29T05:57:39;4.07;;;1.27;;
17852;SDS011;9052;53.494;14.376;2024-03-29T06:00:07;3.20;;;1.33;;
17852;SDS011;9052;53.494;14.376;2024-03-29T06:02:36;10.93;;;3.30;;
17852;SDS011;9052;53.494;14.376;2024-03-29T06:05:02;6.83;;;6.17;;
17852;SDS011;9052;53.494;14.376;2024-03-29T06:07:27;14.03;;;6.80;;
17852;SDS011;9052;53.494;14.376;2024-03-29T06:09:54;6.40;;;3.87;;
17852;SDS011;9052;53.494;14.376;2024-03-29T06:12:20;6.70;;;2.00;;
17852;SDS011;9052;53.494;14.376;2024-03-29T06:14:45;8.50;;;1.13;;
17852;SDS011;9052;53.494;14.376;2024-03-29T06:17:29;2.77;;;1.40;;
17852;SDS011;9052;53.494;14.376;2024-03-29T06:19:55;4.60;;;1.00;;
17852;SDS011;9052;53.494;14.376;2024-03-29T06:22:22;3.90;;;1.00;;
17852;SDS011;9052;53.494;14.376;2024-03-29T06:24:51;1.10;;;0.97;;
17852;SDS011;9052;53.494;14.376;2024-03-29T06:27:17;1.10;;;1.00;;
17852;SDS011;9052;53.494;14.376;2024-03-29T06:29:43;3.13;;;1.03;;
17852;SDS011;9052;53.494;14.376;2024-03-29T06:32:09;12.73;;;1.50;;
17852;SDS011;9052;53.494;14.376;2024-03-29T06:34:34;0.97;;;0.83;;
17852;SDS011;9052;53.494;14.376;2024-03-29T06:37:01;10.30;;;1.40;;
17852;SDS011;9052;53.494;14.376;2024-03-29T06:39:27;1.63;;;1.17;;
17852;SDS011;9052;53.494;14.376;2024-03-29T06:41:53;1.10;;;1.00;;
17852;SDS011;9052;53.494;14.376;2024-03-29T06:44:18;3.60;;;1.23;;
17852;SDS011;9052;53.494;14.376;2024-03-29T06:46:44;1.93;;;0.97;;
17852;SDS011;9052;53.494;14.376;2024-03-29T06:49:10;2.77;;;1.43;;
17852;SDS011;9052;53.494;14.376;2024-03-29T06:51:36;1.10;;;0.90;;
17852;SDS011;9052;53.494;14.376;2024-03-29T06:54:01;1.23;;;1.00;;
17852;SDS011;9052;53.494;14.376;2024-03-29T06:56:28;1.83;;;1.47;;
17852;SDS011;9052;53.494;14.376;2024-03-29T06:58:55;3.13;;;1.00;;
17852;SDS011;9052;53.494;14.376;2024-03-29T07:01:20;2.37;;;1.10;;
17852;SDS011;9052;53.494;14.376;2024-03-29T07:03:47;2.13;;;1.70;;
17852;SDS011;9052;53.494;14.376;2024-03-29T07:06:12;2.60;;;1.27;;
17852;SDS011;9052;53.494;14.376;2024-03-29T07:08:38;2.13;;;2.03;;
17852;SDS011;9052;53.494;14.376;2024-03-29T07:11:04;2.10;;;1.57;;
17852;SDS011;9052;53.494;14.376;2024-03-29T07:13:30;1.00;;;1.00;;
17852;SDS011;9052;53.494;14.376;2024-03-29T07:16:01;6.87;;;1.30;;
17852;SDS011;9052;53.494;14.376;2024-03-29T07:18:27;3.50;;;0.97;;
17852;SDS011;9052;53.494;14.376;2024-03-29T07:20:53;1.90;;;1.23;;
17852;SDS011;9052;53.494;14.376;2024-03-29T07:23:19;1.33;;;0.97;;
17852;SDS011;9052;53.494;14.376;2024-03-29T07:25:45;1.07;;;1.07;;
17852;SDS011;9052;53.494;14.376;2024-03-29T07:28:22;5.83;;;1.67;;
17852;SDS011;9052;53.494;14.376;2024-03-29T07:30:47;5.23;;;1.13;;
17852;SDS011;9052;53.494;14.376;2024-03-29T07:33:15;1.20;;;1.10;;
17852;SDS011;9052;53.494;14.376;2024-03-29T07:35:41;2.97;;;1.40;;
17852;SDS011;9052;53.494;14.376;2024-03-29T07:38:06;1.63;;;1.07;;
17852;SDS011;9052;53.494;14.376;2024-03-29T07:40:32;3.23;;;1.20;;
17852;SDS011;9052;53.494;14.376;2024-03-29T07:42:58;2.07;;;1.40;;
17852;SDS011;9052;53.494;14.376;2024-03-29T07:45:25;3.37;;;1.40;;
17852;SDS011;9052;53.494;14.376;2024-03-29T07:47:50;1.73;;;1.43;;
17852;SDS011;9052;53.494;14.376;2024-03-29T07:50:18;7.20;;;1.07;;
17852;SDS011;9052;53.494;14.376;2024-03-29T07:52:47;1.33;;;0.80;;
17852;SDS011;9052;53.494;14.376;2024-03-29T07:55:13;1.37;;;1.13;;
17852;SDS011;9052;53.494;14.376;2024-03-29T07:57:39;2.23;;;0.90;;
17852;SDS011;9052;53.494;14.376;2024-03-29T08:00:05;3.70;;;1.47;;
17852;SDS011;9052;53.494;14.376;2024-03-29T08:02:34;0.80;;;0.80;;
17852;SDS011;9052;53.494;14.376;2024-03-29T08:04:59;1.20;;;0.93;;
17852;SDS011;9052;53.494;14.376;2024-03-29T08:07:25;1.23;;;0.90;;
17852;SDS011;9052;53.494;14.376;2024-03-29T08:09:51;2.13;;;1.17;;
17852;SDS011;9052;53.494;14.376;2024-03-29T08:12:16;7.23;;;0.87;;
17852;SDS011;9052;53.494;14.376;2024-03-29T08:14:42;2.03;;;1.43;;
17852;SDS011;9052;53.494;14.376;2024-03-29T08:17:07;2.10;;;1.10;;
17852;SDS011;9052;53.494;14.376;2024-03-29T08:19:35;3.53;;;1.80;;
17852;SDS011;9052;53.494;14.376;2024-03-29T08:22:01;3.03;;;1.03;;
17852;SDS011;9052;53.494;14.376;2024-03-29T08:24:27;2.30;;;0.80;;
17852;SDS011;9052;53.494;14.376;2024-03-29T08:26:53;3.73;;;1.57;;
17852;SDS011;9052;53.494;14.376;2024-03-29T08:29:18;2.43;;;0.97;;
17852;SDS011;9052;53.494;14.376;2024-03-29T08:31:44;0.97;;;0.83;;
17852;SDS011;9052;53.494;14.376;2024-03-29T08:34:09;1.83;;;1.00;;
17852;SDS011;9052;53.494;14.376;2024-03-29T08:36:38;14.40;;;1.30;;
17852;SDS011;9052;53.494;14.376;2024-03-29T08:39:04;7.90;;;1.37;;
17852;SDS011;9052;53.494;14.376;2024-03-29T08:41:29;1.37;;;0.70;;
17852;SDS011;9052;53.494;14.376;2024-03-29T08:43:55;4.87;;;1.30;;
17852;SDS011;9052;53.494;14.376;2024-03-29T08:46:20;1.60;;;1.20;;
17852;SDS011;9052;53.494;14.376;2024-03-29T08:48:46;2.10;;;0.97;;
17852;SDS011;9052;53.494;14.376;2024-03-29T08:51:11;3.47;;;0.90;;
17852;SDS011;9052;53.494;14.376;2024-03-29T08:53:39;1.93;;;1.37;;
17852;SDS011;9052;53.494;14.376;2024-03-29T08:56:05;3.73;;;1.43;;
17852;SDS011;9052;53.494;14.376;2024-03-29T08:58:30;1.87;;;0.90;;
17852;SDS011;9052;53.494;14.376;2024-03-29T09:00:56;3.60;;;1.00;;
17852;SDS011;9052;53.494;14.376;2024-03-29T09:03:22;9.73;;;1.17;;
17852;SDS011;9052;53.494;14.376;2024-03-29T09:05:48;6.03;;;1.33;;
17852;SDS011;9052;53.494;14.376;2024-03-29T09:08:14;3.80;;;1.43;;
17852;SDS011;9052;53.494;14.376;2024-03-29T09:10:40;6.10;;;0.80;;
17852;SDS011;9052;53.494;14.376;2024-03-29T09:13:06;1.43;;;0.77;;
17852;SDS011;9052;53.494;14.376;2024-03-29T09:15:32;3.53;;;1.23;;
17852;SDS011;9052;53.494;14.376;2024-03-29T09:17:58;8.50;;;1.47;;
17852;SDS011;9052;53.494;14.376;2024-03-29T09:20:28;1.50;;;1.00;;
17852;SDS011;9052;53.494;14.376;2024-03-29T09:22:53;0.87;;;0.87;;
17852;SDS011;9052;53.494;14.376;2024-03-29T09:25:19;2.07;;;1.50;;
17852;SDS011;9052;53.494;14.376;2024-03-29T09:27:47;4.63;;;1.27;;
17852;SDS011;9052;53.494;14.376;2024-03-29T09:30:13;1.40;;;1.30;;
17852;SDS011;9052;53.494;14.376;2024-03-29T09:32:40;1.77;;;0.73;;
17852;SDS011;9052;53.494;14.376;2024-03-29T09:35:06;4.07;;;1.20;;
17852;SDS011;9052;53.494;14.376;2024-03-29T09:37:32;3.10;;;1.50;;
17852;SDS011;9052;53.494;14.376;2024-03-29T09:40:01;2.20;;;1.30;;
17852;SDS011;9052;53.494;14.376;2024-03-29T09:42:29;2.00;;;1.60;;
17852;SDS011;9052;53.494;14.376;2024-03-29T09:44:57;1.43;;;0.93;;
17852;SDS011;9052;53.494;14.376;2024-03-29T09:47:24;1.47;;;0.90;;
17852;SDS011;9052;53.494;14.376;2024-03-29T09:49:50;1.27;;;1.17;;
17852;SDS011;9052;53.494;14.376;2024-03-29T09:52:18;8.63;;;1.37;;
17852;SDS011;9052;53.494;14.376;2024-03-29T09:54:44;1.47;;;0.90;;
17852;SDS011;9052;53.494;14.376;2024-03-29T09:57:09;1.97;;;1.07;;
17852;SDS011;9052;53.494;14.376;2024-03-29T09:59:35;2.57;;;1.20;;
17852;SDS011;9052;53.494;14.376;2024-03-29T10:02:03;5.10;;;1.30;;
17852;SDS011;9052;53.494;14.376;2024-03-29T10:04:33;2.07;;;0.90;;
17852;SDS011;9052;53.494;14.376;2024-03-29T10:06:59;2.10;;;0.77;;
17852;SDS011;9052;53.494;14.376;2024-03-29T10:09:25;10.13;;;1.70;;
17852;SDS011;9052;53.494;14.376;2024-03-29T10:11:54;1.43;;;1.33;;
17852;SDS011;9052;53.494;14.376;2024-03-29T10:14:20;3.60;;;1.23;;
17852;SDS011;9052;53.494;14.376;2024-03-29T10:16:50;7.73;;;0.97;;
17852;SDS011;9052;53.494;14.376;2024-03-29T10:19:16;2.90;;;1.07;;
17852;SDS011;9052;53.494;14.376;2024-03-29T10:21:42;2.60;;;1.10;;
17852;SDS011;9052;53.494;14.376;2024-03-29T10:24:14;1.80;;;0.80;;
17852;SDS011;9052;53.494;14.376;2024-03-29T10:26:43;1.53;;;0.97;;
17852;SDS011;9052;53.494;14.376;2024-03-29T10:29:09;6.10;;;1.20;;
17852;SDS011;9052;53.494;14.376;2024-03-29T10:31:35;2.27;;;1.10;;
17852;SDS011;9052;53.494;14.376;2024-03-29T10:34:04;2.10;;;0.90;;
17852;SDS011;9052;53.494;14.376;2024-03-29T10:36:30;2.53;;;1.00;;
17852;SDS011;9052;53.494;14.376;2024-03-29T10:39:01;1.37;;;1.13;;
17852;SDS011;9052;53.494;14.376;2024-03-29T10:41:27;2.60;;;1.03;;
17852;SDS011;9052;53.494;14.376;2024-03-29T10:43:54;0.80;;;0.80;;
17852;SDS011;9052;53.494;14.376;2024-03-29T10:46:21;3.30;;;1.03;;
17852;SDS011;9052;53.494;14.376;2024-03-29T10:48:47;9.50;;;1.33;;
17852;SDS011;9052;53.494;14.376;2024-03-29T10:51:14;3.60;;;1.77;;
17852;SDS011;9052;53.494;14.376;2024-03-29T10:53:40;5.03;;;1.33;;
17852;SDS011;9052;53.494;14.376;2024-03-29T10:56:07;1.70;;;1.03;;
17852;SDS011;9052;53.494;14.376;2024-03-29T10:58:37;1.30;;;0.60;;
17852;SDS011;9052;53.494;14.376;2024-03-29T11:01:05;1.33;;;0.53;;
17852;SDS011;9052;53.494;14.376;2024-03-29T11:03:50;0.90;;;0.80;;
17852;SDS011;9052;53.494;14.376;2024-03-29T11:06:16;1.43;;;1.00;;
17852;SDS011;9052;53.494;14.376;2024-03-29T11:08:45;1.73;;;0.90;;
17852;SDS011;9052;53.494;14.376;2024-03-29T11:11:12;4.10;;;1.60;;
17852;SDS011;9052;53.494;14.376;2024-03-29T11:13:47;9.03;;;1.40;;
17852;SDS011;9052;53.494;14.376;2024-03-29T11:16:15;2.20;;;1.10;;
17852;SDS011;9052;53.494;14.376;2024-03-29T11:18:47;1.83;;;0.77;;
17852;SDS011;9052;53.494;14.376;2024-03-29T11:21:13;3.60;;;1.23;;
17852;SDS011;9052;53.494;14.376;2024-03-29T11:23:47;2.50;;;0.80;;
17852;SDS011;9052;53.494;14.376;2024-03-29T11:26:13;2.00;;;0.80;;
17852;SDS011;9052;53.494;14.376;2024-03-29T11:28:39;1.00;;;0.83;;
17852;SDS011;9052;53.494;14.376;2024-03-29T11:31:07;1.33;;;0.83;;
17852;SDS011;9052;53.494;14.376;2024-03-29T11:33:34;7.03;;;0.80;;
17852;SDS011;9052;53.494;14.376;2024-03-29T11:36:11;5.20;;;1.07;;
17852;SDS011;9052;53.494;14.376;2024-03-29T11:38:43;1.33;;;0.90;;
17852;SDS011;9052;53.494;14.376;2024-03-29T11:41:11;1.00;;;0.80;;
17852;SDS011;9052;53.494;14.376;2024-03-29T11:43:41;6.53;;;1.73;;
17852;SDS011;9052;53.494;14.376;2024-03-29T11:46:12;11.37;;;0.83;;
17852;SDS011;9052;53.494;14.376;2024-03-29T11:48:38;3.97;;;1.13;;
17852;SDS011;9052;53.494;14.376;2024-03-29T11:51:04;3.80;;;0.80;;
17852;SDS011;9052;53.494;14.376;2024-03-29T11:53:31;8.90;;;1.33;;
17852;SDS011;9052;53.494;14.376;2024-03-29T11:55:58;1.70;;;0.70;;
17852;SDS011;9052;53.494;14.376;2024-03-29T11:58:24;3.23;;;0.70;;
17852;SDS011;9052;53.494;14.376;2024-03-29T12:00:51;1.17;;;0.67;;
17852;SDS011;9052;53.494;14.376;2024-03-29T12:03:17;10.20;;;1.10;;
17852;SDS011;9052;53.494;14.376;2024-03-29T12:05:45;1.07;;;0.60;;
17852;SDS011;9052;53.494;14.376;2024-03-29T12:08:11;1.23;;;0.67;;
17852;SDS011;9052;53.494;14.376;2024-03-29T12:10:37;2.20;;;0.73;;
17852;SDS011;9052;53.494;14.376;2024-03-29T12:13:07;1.20;;;0.80;;
17852;SDS011;9052;53.494;14.376;2024-03-29T12:15:33;10.33;;;1.20;;
17852;SDS011;9052;53.494;14.376;2024-03-29T12:18:03;2.90;;;0.80;;
17852;SDS011;9052;53.494;14.376;2024-03-29T12:20:33;7.83;;;0.90;;
17852;SDS011;9052;53.494;14.376;2024-03-29T12:23:03;2.97;;;0.60;;
17852;SDS011;9052;53.494;14.376;2024-03-29T12:25:35;3.23;;;0.60;;
17852;SDS011;9052;53.494;14.376;2024-03-29T12:28:02;5.33;;;0.87;;
17852;SDS011;9052;53.494;14.376;2024-03-29T12:30:28;0.70;;;0.60;;
17852;SDS011;9052;53.494;14.376;2024-03-29T12:35:27;1.40;;;0.53;;
17852;SDS011;9052;53.494;14.376;2024-03-29T12:37:57;4.53;;;1.70;;
17852;SDS011;9052;53.494;14.376;2024-03-29T12:40:25;4.20;;;0.93;;
17852;SDS011;9052;53.494;14.376;2024-03-29T12:42:52;1.37;;;0.60;;
17852;SDS011;9052;53.494;14.376;2024-03-29T12:45:18;4.37;;;0.60;;
17852;SDS011;9052;53.494;14.376;2024-03-29T12:47:47;2.20;;;0.60;;
17852;SDS011;9052;53.494;14.376;2024-03-29T12:50:14;2.50;;;0.60;;
17852;SDS011;9052;53.494;14.376;2024-03-29T12:52:46;1.20;;;0.50;;
17852;SDS011;9052;53.494;14.376;2024-03-29T12:55:12;2.00;;;0.60;;
17852;SDS011;9052;53.494;14.376;2024-03-29T12:57:38;0.57;;;0.50;;
17852;SDS011;9052;53.494;14.376;2024-03-29T13:00:06;2.30;;;0.60;;
17852;SDS011;9052;53.494;14.376;2024-03-29T13:02:35;3.17;;;0.97;;
17852;SDS011;9052;53.494;14.376;2024-03-29T13:05:01;3.80;;;0.93;;
17852;SDS011;9052;53.494;14.376;2024-03-29T13:07:28;3.30;;;0.80;;
17852;SDS011;9052;53.494;14.376;2024-03-29T13:09:53;4.77;;;0.60;;
17852;SDS011;9052;53.494;14.376;2024-03-29T13:12:19;0.50;;;0.30;;
17852;SDS011;9052;53.494;14.376;2024-03-29T13:14:44;1.27;;;0.70;;
17852;SDS011;9052;53.494;14.376;2024-03-29T13:17:10;0.93;;;0.93;;
17852;SDS011;9052;53.494;14.376;2024-03-29T13:19:36;1.37;;;0.70;;
17852;SDS011;9052;53.494;14.376;2024-03-29T13:22:01;1.33;;;0.83;;
17852;SDS011;9052;53.494;14.376;2024-03-29T13:24:27;1.60;;;0.60;;
17852;SDS011;9052;53.494;14.376;2024-03-29T13:26:54;1.80;;;1.03;;
17852;SDS011;9052;53.494;14.376;2024-03-29T13:29:20;0.50;;;0.50;;
17852;SDS011;9052;53.494;14.376;2024-03-29T13:31:45;0.93;;;0.67;;
17852;SDS011;9052;53.494;14.376;2024-03-29T13:34:11;0.80;;;0.40;;
17852;SDS011;9052;53.494;14.376;2024-03-29T13:36:38;5.50;;;0.50;;
17852;SDS011;9052;53.494;14.376;2024-03-29T13:39:04;4.40;;;0.80;;
17852;SDS011;9052;53.494;14.376;2024-03-29T13:41:30;1.30;;;1.07;;
17852;SDS011;9052;53.494;14.376;2024-03-29T13:43:56;1.53;;;0.60;;
17852;SDS011;9052;53.494;14.376;2024-03-29T13:46:22;1.23;;;0.80;;
17852;SDS011;9052;53.494;14.376;2024-03-29T13:48:48;0.60;;;0.50;;
17852;SDS011;9052;53.494;14.376;2024-03-29T13:51:13;1.10;;;1.00;;
17852;SDS011;9052;53.494;14.376;2024-03-29T13:53:41;1.50;;;0.77;;
17852;SDS011;9052;53.494;14.376;2024-03-29T13:56:07;1.40;;;0.70;;
17852;SDS011;9052;53.494;14.376;2024-03-29T13:58:32;1.80;;;0.90;;
17852;SDS011;9052;53.494;14.376;2024-03-29T14:00:58;0.93;;;0.93;;
17852;SDS011;9052;53.494;14.376;2024-03-29T14:03:26;7.83;;;0.93;;
17852;SDS011;9052;53.494;14.376;2024-03-29T14:05:51;0.63;;;0.60;;
17852;SDS011;9052;53.494;14.376;2024-03-29T14:08:17;1.70;;;0.93;;
17852;SDS011;9052;53.494;14.376;2024-03-29T14:10:42;0.57;;;0.50;;
17852;SDS011;9052;53.494;14.376;2024-03-29T14:13:09;0.57;;;0.57;;
17852;SDS011;9052;53.494;14.376;2024-03-29T14:15:34;1.63;;;0.80;;
17852;SDS011;9052;53.494;14.376;2024-03-29T14:18:00;2.00;;;0.70;;
17852;SDS011;9052;53.494;14.376;2024-03-29T14:20:25;1.07;;;0.87;;
17852;SDS011;9052;53.494;14.376;2024-03-29T14:22:51;1.33;;;0.80;;
17852;SDS011;9052;53.494;14.376;2024-03-29T14:25:20;7.80;;;1.30;;
17852;SDS011;9052;53.494;14.376;2024-03-29T14:27:46;4.03;;;1.50;;
17852;SDS011;9052;53.494;14.376;2024-03-29T14:30:19;1.93;;;1.50;;
17852;SDS011;9052;53.494;14.376;2024-03-29T14:32:50;1.63;;;1.00;;
17852;SDS011;9052;53.494;14.376;2024-03-29T14:35:16;1.97;;;1.40;;
17852;SDS011;9052;53.494;14.376;2024-03-29T14:37:43;1.00;;;0.90;;
17852;SDS011;9052;53.494;14.376;2024-03-29T14:40:09;1.97;;;1.20;;
17852;SDS011;9052;53.494;14.376;2024-03-29T14:42:38;0.97;;;0.90;;
17852;SDS011;9052;53.494;14.376;2024-03-29T14:45:03;2.37;;;1.40;;
17852;SDS011;9052;53.494;14.376;2024-03-29T14:47:31;2.07;;;1.33;;